sensor_id;sensor_type;location;lat;lon;timestamp;temperature;humidity
51486;DHT22;37565;51.352;6.412;2022-11-15T00:01:08;18.80;99.90
51486;DHT22;37565;51.352;6.412;2022-11-15T00:03:36;18.80;99.90
51486;DHT22;37565;51.352;6.412;2022-11-15T00:06:04;18.80;99.90
51486;DHT22;37565;51.352;6.412;2022-11-15T00:08:32;18.80;99.90
51486;DHT22;37565;51.352;6.412;2022-11-15T00:11:01;18.80;99.90
51486;DHT22;37565;51.352;6.412;2022-11-15T00:13:30;18.80;99.90
51486;DHT22;37565;51.352;6.412;2022-11-15T00:16:00;18.80;99.90
51486;DHT22;37565;51.352;6.412;2022-11-15T00:18:29;18.80;99.90
51486;DHT22;37565;51.352;6.412;2022-11-15T00:21:03;18.70;99.90
51486;DHT22;37565;51.352;6.412;2022-11-15T00:23:32;18.70;99.90
51486;DHT22;37565;51.352;6.412;2022-11-15T00:26:00;18.70;99.90
51486;DHT22;37565;51.352;6.412;2022-11-15T00:28:28;18.70;99.90
51486;DHT22;37565;51.352;6.412;2022-11-15T00:31:01;18.70;99.90
51486;DHT22;37565;51.352;6.412;2022-11-15T00:33:29;18.70;99.90
51486;DHT22;37565;51.352;6.412;2022-11-15T00:36:01;18.60;99.90
51486;DHT22;37565;51.352;6.412;2022-11-15T00:38:31;18.60;99.90
51486;DHT22;37565;51.352;6.412;2022-11-15T00:41:00;18.60;99.90
51486;DHT22;37565;51.352;6.412;2022-11-15T00:43:35;18.60;99.90
51486;DHT22;37565;51.352;6.412;2022-11-15T00:46:04;18.60;99.90
51486;DHT22;37565;51.352;6.412;2022-11-15T00:48:34;18.50;99.90
51486;DHT22;37565;51.352;6.412;2022-11-15T00:51:02;18.50;99.90
51486;DHT22;37565;51.352;6.412;2022-11-15T00:53:30;18.50;99.90
51486;DHT22;37565;51.352;6.412;2022-11-15T00:55:59;18.50;99.90
51486;DHT22;37565;51.352;6.412;2022-11-15T00:58:27;18.50;99.90
51486;DHT22;37565;51.352;6.412;2022-11-15T01:00:55;18.50;99.90
51486;DHT22;37565;51.352;6.412;2022-11-15T01:03:24;18.50;99.90
51486;DHT22;37565;51.352;6.412;2022-11-15T01:05:52;18.40;99.90
51486;DHT22;37565;51.352;6.412;2022-11-15T01:08:20;18.50;99.90
51486;DHT22;37565;51.352;6.412;2022-11-15T01:10:48;18.40;99.90
51486;DHT22;37565;51.352;6.412;2022-11-15T01:13:15;18.40;99.90
51486;DHT22;37565;51.352;6.412;2022-11-15T01:15:43;18.40;99.90
51486;DHT22;37565;51.352;6.412;2022-11-15T01:18:11;18.40;99.90
51486;DHT22;37565;51.352;6.412;2022-11-15T01:20:42;18.40;99.90
51486;DHT22;37565;51.352;6.412;2022-11-15T01:23:10;18.40;99.90
51486;DHT22;37565;51.352;6.412;2022-11-15T01:25:38;18.40;99.90
51486;DHT22;37565;51.352;6.412;2022-11-15T01:28:06;18.40;99.90
51486;DHT22;37565;51.352;6.412;2022-11-15T01:30:35;18.40;99.90
51486;DHT22;37565;51.352;6.412;2022-11-15T01:33:03;18.40;99.90
51486;DHT22;37565;51.352;6.412;2022-11-15T01:35:31;18.40;99.90
51486;DHT22;37565;51.352;6.412;2022-11-15T01:38:01;18.40;99.90
51486;DHT22;37565;51.352;6.412;2022-11-15T01:40:28;18.30;99.90
51486;DHT22;37565;51.352;6.412;2022-11-15T01:42:56;18.30;99.90
51486;DHT22;37565;51.352;6.412;2022-11-15T01:45:25;18.40;99.90
51486;DHT22;37565;51.352;6.412;2022-11-15T01:47:54;18.40;99.90
51486;DHT22;37565;51.352;6.412;2022-11-15T01:50:26;18.30;99.90
51486;DHT22;37565;51.352;6.412;2022-11-15T01:52:56;18.40;99.90
51486;DHT22;37565;51.352;6.412;2022-11-15T01:55:27;18.30;99.90
51486;DHT22;37565;51.352;6.412;2022-11-15T01:57:58;18.30;99.90
51486;DHT22;37565;51.352;6.412;2022-11-15T02:00:28;18.30;99.90
51486;DHT22;37565;51.352;6.412;2022-11-15T02:02:56;18.30;99.90
51486;DHT22;37565;51.352;6.412;2022-11-15T02:05:25;18.30;99.90
51486;DHT22;37565;51.352;6.412;2022-11-15T02:07:53;18.30;99.90
51486;DHT22;37565;51.352;6.412;2022-11-15T02:10:23;18.30;99.90
51486;DHT22;37565;51.352;6.412;2022-11-15T02:12:53;18.30;99.90
51486;DHT22;37565;51.352;6.412;2022-11-15T02:15:24;18.30;99.90
51486;DHT22;37565;51.352;6.412;2022-11-15T02:18:07;18.30;99.90
51486;DHT22;37565;51.352;6.412;2022-11-15T02:20:51;18.30;99.90
51486;DHT22;37565;51.352;6.412;2022-11-15T02:23:43;18.30;99.90
51486;DHT22;37565;51.352;6.412;2022-11-15T02:26:48;18.30;99.90
51486;DHT22;37565;51.352;6.412;2022-11-15T02:29:32;18.30;99.90
51486;DHT22;37565;51.352;6.412;2022-11-15T02:32:06;18.30;99.90
51486;DHT22;37565;51.352;6.412;2022-11-15T02:34:42;18.30;99.90
51486;DHT22;37565;51.352;6.412;2022-11-15T02:37:17;18.30;99.90
51486;DHT22;37565;51.352;6.412;2022-11-15T02:39:53;18.20;99.90
51486;DHT22;37565;51.352;6.412;2022-11-15T02:42:28;18.30;99.90
51486;DHT22;37565;51.352;6.412;2022-11-15T02:45:30;18.30;99.90
51486;DHT22;37565;51.352;6.412;2022-11-15T02:48:01;18.20;99.90
51486;DHT22;37565;51.352;6.412;2022-11-15T02:50:32;18.20;99.90
51486;DHT22;37565;51.352;6.412;2022-11-15T02:53:01;18.20;99.90
51486;DHT22;37565;51.352;6.412;2022-11-15T02:55:31;18.20;99.90
51486;DHT22;37565;51.352;6.412;2022-11-15T02:58:12;18.20;99.90
51486;DHT22;37565;51.352;6.412;2022-11-15T03:00:47;18.20;99.90
51486;DHT22;37565;51.352;6.412;2022-11-15T03:03:28;18.20;99.90
51486;DHT22;37565;51.352;6.412;2022-11-15T03:06:06;18.20;99.90
51486;DHT22;37565;51.352;6.412;2022-11-15T03:08:53;18.20;99.90
51486;DHT22;37565;51.352;6.412;2022-11-15T03:11:23;18.20;99.90
51486;DHT22;37565;51.352;6.412;2022-11-15T03:13:57;18.20;99.90
51486;DHT22;37565;51.352;6.412;2022-11-15T03:16:30;18.20;99.90
51486;DHT22;37565;51.352;6.412;2022-11-15T03:19:04;18.20;99.90
51486;DHT22;37565;51.352;6.412;2022-11-15T03:21:35;18.20;99.90
51486;DHT22;37565;51.352;6.412;2022-11-15T03:24:07;18.20;99.90
51486;DHT22;37565;51.352;6.412;2022-11-15T03:26:37;18.20;99.90
51486;DHT22;37565;51.352;6.412;2022-11-15T03:29:11;18.10;99.90
51486;DHT22;37565;51.352;6.412;2022-11-15T03:31:44;18.20;99.90
51486;DHT22;37565;51.352;6.412;2022-11-15T03:34:24;18.10;99.90
51486;DHT22;37565;51.352;6.412;2022-11-15T03:36:53;18.10;99.90
51486;DHT22;37565;51.352;6.412;2022-11-15T03:39:21;18.20;99.90
51486;DHT22;37565;51.352;6.412;2022-11-15T03:41:56;18.10;99.90
51486;DHT22;37565;51.352;6.412;2022-11-15T03:44:33;18.10;99.90
51486;DHT22;37565;51.352;6.412;2022-11-15T03:47:08;18.10;99.90
51486;DHT22;37565;51.352;6.412;2022-11-15T03:49:42;18.10;99.90
51486;DHT22;37565;51.352;6.412;2022-11-15T03:52:12;18.10;99.90
51486;DHT22;37565;51.352;6.412;2022-11-15T03:54:48;18.10;99.90
51486;DHT22;37565;51.352;6.412;2022-11-15T03:57:16;18.10;99.90
51486;DHT22;37565;51.352;6.412;2022-11-15T03:59:44;18.10;99.90
51486;DHT22;37565;51.352;6.412;2022-11-15T04:02:13;18.10;99.90
51486;DHT22;37565;51.352;6.412;2022-11-15T04:04:42;18.10;99.90
51486;DHT22;37565;51.352;6.412;2022-11-15T04:07:10;18.10;99.90
51486;DHT22;37565;51.352;6.412;2022-11-15T04:09:39;18.10;99.90
51486;DHT22;37565;51.352;6.412;2022-11-15T04:12:20;18.10;99.90
51486;DHT22;37565;51.352;6.412;2022-11-15T04:14:58;18.10;99.90
51486;DHT22;37565;51.352;6.412;2022-11-15T04:17:37;18.10;99.90
51486;DHT22;37565;51.352;6.412;2022-11-15T04:20:10;18.10;99.90
51486;DHT22;37565;51.352;6.412;2022-11-15T04:22:57;18.10;99.90
51486;DHT22;37565;51.352;6.412;2022-11-15T04:25:43;18.10;99.90
51486;DHT22;37565;51.352;6.412;2022-11-15T04:28:12;18.10;99.90
51486;DHT22;37565;51.352;6.412;2022-11-15T04:30:40;18.10;99.90
51486;DHT22;37565;51.352;6.412;2022-11-15T04:33:08;18.10;99.90
51486;DHT22;37565;51.352;6.412;2022-11-15T04:35:37;18.10;99.90
51486;DHT22;37565;51.352;6.412;2022-11-15T04:38:06;18.10;99.90
51486;DHT22;37565;51.352;6.412;2022-11-15T04:40:35;18.00;99.90
51486;DHT22;37565;51.352;6.412;2022-11-15T04:43:04;18.00;99.90
51486;DHT22;37565;51.352;6.412;2022-11-15T04:45:32;18.10;99.90
51486;DHT22;37565;51.352;6.412;2022-11-15T04:47:59;18.10;99.90
51486;DHT22;37565;51.352;6.412;2022-11-15T04:50:27;18.10;99.90
51486;DHT22;37565;51.352;6.412;2022-11-15T04:52:57;18.10;99.90
51486;DHT22;37565;51.352;6.412;2022-11-15T04:55:25;18.10;99.90
51486;DHT22;37565;51.352;6.412;2022-11-15T04:57:58;18.10;99.90
51486;DHT22;37565;51.352;6.412;2022-11-15T05:00:27;18.00;99.90
51486;DHT22;37565;51.352;6.412;2022-11-15T05:02:56;18.00;99.90
51486;DHT22;37565;51.352;6.412;2022-11-15T05:05:41;18.00;99.90
51486;DHT22;37565;51.352;6.412;2022-11-15T05:08:10;18.00;99.90
51486;DHT22;37565;51.352;6.412;2022-11-15T05:10:38;18.00;99.90
51486;DHT22;37565;51.352;6.412;2022-11-15T05:13:06;18.10;99.90
51486;DHT22;37565;51.352;6.412;2022-11-15T05:15:34;18.00;99.90
51486;DHT22;37565;51.352;6.412;2022-11-15T05:18:02;18.00;99.90
51486;DHT22;37565;51.352;6.412;2022-11-15T05:20:30;18.00;99.90
51486;DHT22;37565;51.352;6.412;2022-11-15T05:22:58;18.00;99.90
51486;DHT22;37565;51.352;6.412;2022-11-15T05:25:28;18.00;99.90
51486;DHT22;37565;51.352;6.412;2022-11-15T05:27:56;18.00;99.90
51486;DHT22;37565;51.352;6.412;2022-11-15T05:30:24;18.10;99.90
51486;DHT22;37565;51.352;6.412;2022-11-15T05:32:53;18.00;99.90
51486;DHT22;37565;51.352;6.412;2022-11-15T05:35:29;18.00;99.90
51486;DHT22;37565;51.352;6.412;2022-11-15T05:37:58;18.00;99.90
51486;DHT22;37565;51.352;6.412;2022-11-15T05:40:29;18.00;99.90
51486;DHT22;37565;51.352;6.412;2022-11-15T05:42:58;18.00;99.90
51486;DHT22;37565;51.352;6.412;2022-11-15T05:45:28;18.00;99.90
51486;DHT22;37565;51.352;6.412;2022-11-15T05:47:57;18.00;99.90
51486;DHT22;37565;51.352;6.412;2022-11-15T05:50:27;18.00;99.90
51486;DHT22;37565;51.352;6.412;2022-11-15T05:52:55;18.00;99.90
51486;DHT22;37565;51.352;6.412;2022-11-15T05:55:32;18.00;99.90
51486;DHT22;37565;51.352;6.412;2022-11-15T05:58:00;18.10;99.90
51486;DHT22;37565;51.352;6.412;2022-11-15T06:00:28;18.00;99.90
51486;DHT22;37565;51.352;6.412;2022-11-15T06:02:56;18.00;99.90
51486;DHT22;37565;51.352;6.412;2022-11-15T06:05:24;18.00;99.90
51486;DHT22;37565;51.352;6.412;2022-11-15T06:07:52;18.00;99.90
51486;DHT22;37565;51.352;6.412;2022-11-15T06:10:20;18.00;99.90
51486;DHT22;37565;51.352;6.412;2022-11-15T06:12:56;18.00;99.90
51486;DHT22;37565;51.352;6.412;2022-11-15T06:15:24;18.00;99.90
51486;DHT22;37565;51.352;6.412;2022-11-15T06:17:55;18.00;99.90
51486;DHT22;37565;51.352;6.412;2022-11-15T06:20:24;18.00;99.90
51486;DHT22;37565;51.352;6.412;2022-11-15T06:22:56;18.00;99.90
51486;DHT22;37565;51.352;6.412;2022-11-15T06:25:25;18.00;99.90
51486;DHT22;37565;51.352;6.412;2022-11-15T06:27:55;18.00;99.90
51486;DHT22;37565;51.352;6.412;2022-11-15T06:30:24;18.00;99.90
51486;DHT22;37565;51.352;6.412;2022-11-15T06:32:58;18.00;99.90
51486;DHT22;37565;51.352;6.412;2022-11-15T06:35:27;18.00;99.90
51486;DHT22;37565;51.352;6.412;2022-11-15T06:37:56;18.00;99.90
51486;DHT22;37565;51.352;6.412;2022-11-15T06:40:24;18.00;99.90
51486;DHT22;37565;51.352;6.412;2022-11-15T06:42:57;18.00;99.90
51486;DHT22;37565;51.352;6.412;2022-11-15T06:45:25;18.00;99.90
51486;DHT22;37565;51.352;6.412;2022-11-15T06:47:54;18.00;99.90
51486;DHT22;37565;51.352;6.412;2022-11-15T06:50:21;18.00;99.90
51486;DHT22;37565;51.352;6.412;2022-11-15T06:52:49;17.90;99.90
51486;DHT22;37565;51.352;6.412;2022-11-15T06:55:17;18.00;99.90
51486;DHT22;37565;51.352;6.412;2022-11-15T06:57:49;18.00;99.90
51486;DHT22;37565;51.352;6.412;2022-11-15T07:00:20;17.90;99.90
51486;DHT22;37565;51.352;6.412;2022-11-15T07:02:48;17.90;99.90
51486;DHT22;37565;51.352;6.412;2022-11-15T07:05:17;17.90;99.90
51486;DHT22;37565;51.352;6.412;2022-11-15T07:07:51;17.90;99.90
51486;DHT22;37565;51.352;6.412;2022-11-15T07:10:20;17.90;99.90
51486;DHT22;37565;51.352;6.412;2022-11-15T07:12:48;18.00;99.90
51486;DHT22;37565;51.352;6.412;2022-11-15T07:15:18;17.90;99.90
51486;DHT22;37565;51.352;6.412;2022-11-15T07:17:47;17.90;99.90
51486;DHT22;37565;51.352;6.412;2022-11-15T07:20:15;17.90;99.90
51486;DHT22;37565;51.352;6.412;2022-11-15T07:22:44;17.90;99.90
51486;DHT22;37565;51.352;6.412;2022-11-15T07:25:12;18.00;99.90
51486;DHT22;37565;51.352;6.412;2022-11-15T07:27:40;18.00;99.90
51486;DHT22;37565;51.352;6.412;2022-11-15T07:30:09;18.00;99.90
51486;DHT22;37565;51.352;6.412;2022-11-15T07:32:42;18.00;99.90
51486;DHT22;37565;51.352;6.412;2022-11-15T07:35:10;18.00;99.90
51486;DHT22;37565;51.352;6.412;2022-11-15T07:37:38;18.00;99.90
51486;DHT22;37565;51.352;6.412;2022-11-15T07:40:07;18.10;99.90
51486;DHT22;37565;51.352;6.412;2022-11-15T07:42:36;18.10;99.90
51486;DHT22;37565;51.352;6.412;2022-11-15T07:45:23;18.20;99.90
51486;DHT22;37565;51.352;6.412;2022-11-15T07:47:54;18.20;99.90
51486;DHT22;37565;51.352;6.412;2022-11-15T07:50:23;18.20;99.90
51486;DHT22;37565;51.352;6.412;2022-11-15T07:52:55;18.20;99.90
51486;DHT22;37565;51.352;6.412;2022-11-15T07:55:23;18.20;99.90
51486;DHT22;37565;51.352;6.412;2022-11-15T07:57:51;18.30;99.90
51486;DHT22;37565;51.352;6.412;2022-11-15T08:00:19;18.30;99.90
51486;DHT22;37565;51.352;6.412;2022-11-15T08:02:47;18.30;99.90
51486;DHT22;37565;51.352;6.412;2022-11-15T08:05:17;18.40;99.90
51486;DHT22;37565;51.352;6.412;2022-11-15T08:07:44;18.40;99.90
51486;DHT22;37565;51.352;6.412;2022-11-15T08:10:12;18.40;99.90
51486;DHT22;37565;51.352;6.412;2022-11-15T08:12:43;18.40;99.90
51486;DHT22;37565;51.352;6.412;2022-11-15T08:15:11;18.40;99.90
51486;DHT22;37565;51.352;6.412;2022-11-15T08:17:39;18.50;99.90
51486;DHT22;37565;51.352;6.412;2022-11-15T08:20:08;18.50;99.90
51486;DHT22;37565;51.352;6.412;2022-11-15T08:22:37;18.50;99.90
51486;DHT22;37565;51.352;6.412;2022-11-15T08:25:05;18.50;99.90
51486;DHT22;37565;51.352;6.412;2022-11-15T08:27:34;18.50;99.90
51486;DHT22;37565;51.352;6.412;2022-11-15T08:30:03;18.50;99.90
51486;DHT22;37565;51.352;6.412;2022-11-15T08:32:31;18.50;99.90
51486;DHT22;37565;51.352;6.412;2022-11-15T08:34:59;18.50;99.90
51486;DHT22;37565;51.352;6.412;2022-11-15T08:37:27;18.50;99.90
51486;DHT22;37565;51.352;6.412;2022-11-15T08:39:56;18.50;99.90
51486;DHT22;37565;51.352;6.412;2022-11-15T08:42:24;18.50;99.90
51486;DHT22;37565;51.352;6.412;2022-11-15T08:44:52;18.50;99.90
51486;DHT22;37565;51.352;6.412;2022-11-15T08:47:20;18.50;99.90
51486;DHT22;37565;51.352;6.412;2022-11-15T08:49:48;18.50;99.90
51486;DHT22;37565;51.352;6.412;2022-11-15T08:52:16;18.50;99.90
51486;DHT22;37565;51.352;6.412;2022-11-15T08:54:44;18.50;99.90
51486;DHT22;37565;51.352;6.412;2022-11-15T08:57:13;18.50;99.90
51486;DHT22;37565;51.352;6.412;2022-11-15T08:59:41;18.50;99.90
51486;DHT22;37565;51.352;6.412;2022-11-15T09:02:11;18.50;99.90
51486;DHT22;37565;51.352;6.412;2022-11-15T09:04:40;18.50;99.90
51486;DHT22;37565;51.352;6.412;2022-11-15T09:07:11;18.50;99.90
51486;DHT22;37565;51.352;6.412;2022-11-15T09:09:39;18.50;99.90
51486;DHT22;37565;51.352;6.412;2022-11-15T09:12:08;18.50;99.90
51486;DHT22;37565;51.352;6.412;2022-11-15T09:14:37;18.50;99.90
51486;DHT22;37565;51.352;6.412;2022-11-15T09:17:07;18.50;99.90
51486;DHT22;37565;51.352;6.412;2022-11-15T09:19:36;18.50;99.90
51486;DHT22;37565;51.352;6.412;2022-11-15T09:22:06;18.50;99.90
51486;DHT22;37565;51.352;6.412;2022-11-15T09:24:34;18.50;99.90
51486;DHT22;37565;51.352;6.412;2022-11-15T09:27:02;18.50;99.90
51486;DHT22;37565;51.352;6.412;2022-11-15T09:29:30;18.50;99.90
51486;DHT22;37565;51.352;6.412;2022-11-15T09:31:59;18.50;99.90
51486;DHT22;37565;51.352;6.412;2022-11-15T09:34:27;18.50;99.90
51486;DHT22;37565;51.352;6.412;2022-11-15T09:36:55;18.60;99.90
51486;DHT22;37565;51.352;6.412;2022-11-15T09:39:23;18.60;99.90
51486;DHT22;37565;51.352;6.412;2022-11-15T09:42:00;18.60;99.90
51486;DHT22;37565;51.352;6.412;2022-11-15T09:44:41;18.60;99.90
51486;DHT22;37565;51.352;6.412;2022-11-15T09:47:29;18.60;99.90
51486;DHT22;37565;51.352;6.412;2022-11-15T09:50:07;18.60;99.90
51486;DHT22;37565;51.352;6.412;2022-11-15T09:52:37;18.60;99.90
51486;DHT22;37565;51.352;6.412;2022-11-15T09:55:08;18.60;99.90
51486;DHT22;37565;51.352;6.412;2022-11-15T09:57:41;18.60;99.90
51486;DHT22;37565;51.352;6.412;2022-11-15T10:00:15;18.60;99.90
51486;DHT22;37565;51.352;6.412;2022-11-15T10:03:11;18.60;99.90
51486;DHT22;37565;51.352;6.412;2022-11-15T10:05:41;18.60;99.90
51486;DHT22;37565;51.352;6.412;2022-11-15T10:08:26;18.60;99.90
51486;DHT22;37565;51.352;6.412;2022-11-15T10:10:58;18.60;99.90
51486;DHT22;37565;51.352;6.412;2022-11-15T10:13:48;18.70;99.90
51486;DHT22;37565;51.352;6.412;2022-11-15T10:16:41;18.60;99.90
51486;DHT22;37565;51.352;6.412;2022-11-15T10:19:24;18.60;99.90
51486;DHT22;37565;51.352;6.412;2022-11-15T10:22:02;18.60;99.90
51486;DHT22;37565;51.352;6.412;2022-11-15T10:24:35;18.70;99.90
51486;DHT22;37565;51.352;6.412;2022-11-15T10:27:09;18.60;99.90
51486;DHT22;37565;51.352;6.412;2022-11-15T10:29:43;18.60;99.90
51486;DHT22;37565;51.352;6.412;2022-11-15T10:32:12;18.70;99.90
51486;DHT22;37565;51.352;6.412;2022-11-15T10:34:41;18.60;99.90
51486;DHT22;37565;51.352;6.412;2022-11-15T10:37:09;18.60;99.90
51486;DHT22;37565;51.352;6.412;2022-11-15T10:39:37;18.60;99.90
51486;DHT22;37565;51.352;6.412;2022-11-15T10:42:17;18.60;99.90
51486;DHT22;37565;51.352;6.412;2022-11-15T10:44:45;18.70;99.90
51486;DHT22;37565;51.352;6.412;2022-11-15T10:47:25;18.70;99.90
51486;DHT22;37565;51.352;6.412;2022-11-15T10:50:00;18.70;99.90
51486;DHT22;37565;51.352;6.412;2022-11-15T10:52:29;18.70;99.90
51486;DHT22;37565;51.352;6.412;2022-11-15T10:55:02;18.70;99.90
51486;DHT22;37565;51.352;6.412;2022-11-15T10:57:33;18.80;99.90
51486;DHT22;37565;51.352;6.412;2022-11-15T11:00:06;18.70;99.90
51486;DHT22;37565;51.352;6.412;2022-11-15T11:02:36;18.70;99.90
51486;DHT22;37565;51.352;6.412;2022-11-15T11:07:57;18.80;99.90
51486;DHT22;37565;51.352;6.412;2022-11-15T11:10:26;18.80;99.90
51486;DHT22;37565;51.352;6.412;2022-11-15T11:13:15;18.80;99.90
51486;DHT22;37565;51.352;6.412;2022-11-15T11:15:59;18.80;99.90
51486;DHT22;37565;51.352;6.412;2022-11-15T11:18:33;18.70;99.90
51486;DHT22;37565;51.352;6.412;2022-11-15T11:21:08;18.80;99.90
51486;DHT22;37565;51.352;6.412;2022-11-15T11:23:45;18.80;99.90
51486;DHT22;37565;51.352;6.412;2022-11-15T11:26:30;18.80;99.90
51486;DHT22;37565;51.352;6.412;2022-11-15T11:29:05;18.80;99.90
51486;DHT22;37565;51.352;6.412;2022-11-15T11:31:42;18.70;99.90
51486;DHT22;37565;51.352;6.412;2022-11-15T11:34:19;18.80;99.90
51486;DHT22;37565;51.352;6.412;2022-11-15T11:36:59;18.80;99.90
51486;DHT22;37565;51.352;6.412;2022-11-15T11:39:38;18.70;99.90
51486;DHT22;37565;51.352;6.412;2022-11-15T11:42:15;18.70;99.90
51486;DHT22;37565;51.352;6.412;2022-11-15T11:44:55;18.70;99.90
51486;DHT22;37565;51.352;6.412;2022-11-15T11:47:31;18.70;99.90
51486;DHT22;37565;51.352;6.412;2022-11-15T11:50:02;18.70;99.90
51486;DHT22;37565;51.352;6.412;2022-11-15T11:52:43;18.70;99.90
51486;DHT22;37565;51.352;6.412;2022-11-15T11:55:20;18.70;99.90
51486;DHT22;37565;51.352;6.412;2022-11-15T11:57:53;18.70;99.90
51486;DHT22;37565;51.352;6.412;2022-11-15T12:00:26;18.70;99.90
51486;DHT22;37565;51.352;6.412;2022-11-15T12:03:03;18.70;99.90
51486;DHT22;37565;51.352;6.412;2022-11-15T12:05:37;18.70;99.90
51486;DHT22;37565;51.352;6.412;2022-11-15T12:08:20;18.80;99.90
51486;DHT22;37565;51.352;6.412;2022-11-15T12:10:54;18.80;99.90
51486;DHT22;37565;51.352;6.412;2022-11-15T12:13:25;18.90;99.90
51486;DHT22;37565;51.352;6.412;2022-11-15T12:15:59;18.90;99.90
51486;DHT22;37565;51.352;6.412;2022-11-15T12:18:34;19.00;99.90
51486;DHT22;37565;51.352;6.412;2022-11-15T12:21:06;19.00;99.90
51486;DHT22;37565;51.352;6.412;2022-11-15T12:23:39;19.00;99.90
51486;DHT22;37565;51.352;6.412;2022-11-15T12:26:16;19.10;99.90
51486;DHT22;37565;51.352;6.412;2022-11-15T12:28:47;19.10;99.90
51486;DHT22;37565;51.352;6.412;2022-11-15T12:31:39;19.10;99.90
51486;DHT22;37565;51.352;6.412;2022-11-15T12:34:29;19.10;99.90
51486;DHT22;37565;51.352;6.412;2022-11-15T12:36:57;19.10;99.90
51486;DHT22;37565;51.352;6.412;2022-11-15T12:42:41;19.10;99.90
51486;DHT22;37565;51.352;6.412;2022-11-15T12:45:25;19.10;99.90
51486;DHT22;37565;51.352;6.412;2022-11-15T12:47:53;19.10;99.90
51486;DHT22;37565;51.352;6.412;2022-11-15T12:50:55;19.10;99.90
51486;DHT22;37565;51.352;6.412;2022-11-15T12:53:28;19.10;99.90
51486;DHT22;37565;51.352;6.412;2022-11-15T12:56:22;19.10;99.90
51486;DHT22;37565;51.352;6.412;2022-11-15T12:58:54;19.10;99.90
51486;DHT22;37565;51.352;6.412;2022-11-15T13:01:55;19.10;99.90
51486;DHT22;37565;51.352;6.412;2022-11-15T13:04:28;19.00;99.90
51486;DHT22;37565;51.352;6.412;2022-11-15T13:06:58;19.10;99.90
51486;DHT22;37565;51.352;6.412;2022-11-15T13:10:00;19.10;99.90
51486;DHT22;37565;51.352;6.412;2022-11-15T13:12:57;19.10;99.90
51486;DHT22;37565;51.352;6.412;2022-11-15T13:15:55;19.00;99.90
51486;DHT22;37565;51.352;6.412;2022-11-15T13:18:36;19.00;99.90
51486;DHT22;37565;51.352;6.412;2022-11-15T13:21:18;19.00;99.90
51486;DHT22;37565;51.352;6.412;2022-11-15T13:24:04;19.00;99.90
51486;DHT22;37565;51.352;6.412;2022-11-15T13:26:32;19.00;99.90
51486;DHT22;37565;51.352;6.412;2022-11-15T13:29:00;19.10;99.90
51486;DHT22;37565;51.352;6.412;2022-11-15T13:31:34;19.00;99.90
51486;DHT22;37565;51.352;6.412;2022-11-15T13:34:24;19.00;99.90
51486;DHT22;37565;51.352;6.412;2022-11-15T13:37:28;18.90;99.90
51486;DHT22;37565;51.352;6.412;2022-11-15T13:40:15;18.90;99.90
51486;DHT22;37565;51.352;6.412;2022-11-15T13:42:46;18.90;99.90
51486;DHT22;37565;51.352;6.412;2022-11-15T13:45:17;18.90;99.90
51486;DHT22;37565;51.352;6.412;2022-11-15T13:47:54;18.90;99.90
51486;DHT22;37565;51.352;6.412;2022-11-15T13:50:26;18.90;99.90
51486;DHT22;37565;51.352;6.412;2022-11-15T13:52:58;18.90;99.90
51486;DHT22;37565;51.352;6.412;2022-11-15T13:55:29;18.90;99.90
51486;DHT22;37565;51.352;6.412;2022-11-15T13:58:01;18.90;99.90
51486;DHT22;37565;51.352;6.412;2022-11-15T14:00:35;18.90;99.90
51486;DHT22;37565;51.352;6.412;2022-11-15T14:03:19;18.90;99.90
51486;DHT22;37565;51.352;6.412;2022-11-15T14:06:03;18.80;99.90
51486;DHT22;37565;51.352;6.412;2022-11-15T14:08:33;18.80;99.90
51486;DHT22;37565;51.352;6.412;2022-11-15T14:11:23;18.80;99.90
51486;DHT22;37565;51.352;6.412;2022-11-15T14:14:11;18.80;99.90
51486;DHT22;37565;51.352;6.412;2022-11-15T14:16:41;18.80;99.90
51486;DHT22;37565;51.352;6.412;2022-11-15T14:19:22;18.80;99.90
51486;DHT22;37565;51.352;6.412;2022-11-15T14:22:16;18.80;99.90
51486;DHT22;37565;51.352;6.412;2022-11-15T14:27:30;18.80;99.90
51486;DHT22;37565;51.352;6.412;2022-11-15T14:29:59;18.80;99.90
51486;DHT22;37565;51.352;6.412;2022-11-15T14:32:28;18.80;99.90
51486;DHT22;37565;51.352;6.412;2022-11-15T14:34:58;18.80;99.90
51486;DHT22;37565;51.352;6.412;2022-11-15T14:37:29;18.80;99.90
51486;DHT22;37565;51.352;6.412;2022-11-15T14:39:58;18.80;99.90
51486;DHT22;37565;51.352;6.412;2022-11-15T14:42:26;18.80;99.90
51486;DHT22;37565;51.352;6.412;2022-11-15T14:44:54;18.90;99.90
51486;DHT22;37565;51.352;6.412;2022-11-15T14:47:22;18.90;99.90
51486;DHT22;37565;51.352;6.412;2022-11-15T14:49:50;18.90;99.90
51486;DHT22;37565;51.352;6.412;2022-11-15T14:52:25;18.90;99.90
51486;DHT22;37565;51.352;6.412;2022-11-15T14:55:01;18.90;99.90
51486;DHT22;37565;51.352;6.412;2022-11-15T14:57:30;18.90;99.90
51486;DHT22;37565;51.352;6.412;2022-11-15T14:59:57;18.90;99.90
51486;DHT22;37565;51.352;6.412;2022-11-15T15:02:26;18.90;99.90
51486;DHT22;37565;51.352;6.412;2022-11-15T15:04:55;18.90;99.90
51486;DHT22;37565;51.352;6.412;2022-11-15T15:07:27;18.90;99.90
51486;DHT22;37565;51.352;6.412;2022-11-15T15:09:55;18.90;99.90
51486;DHT22;37565;51.352;6.412;2022-11-15T15:12:45;18.90;99.90
51486;DHT22;37565;51.352;6.412;2022-11-15T15:15:14;18.90;99.90
51486;DHT22;37565;51.352;6.412;2022-11-15T15:17:43;18.90;99.90
51486;DHT22;37565;51.352;6.412;2022-11-15T15:20:11;18.90;99.90
51486;DHT22;37565;51.352;6.412;2022-11-15T15:22:39;18.90;99.90
51486;DHT22;37565;51.352;6.412;2022-11-15T15:25:21;18.90;99.90
51486;DHT22;37565;51.352;6.412;2022-11-15T15:27:51;18.90;99.90
51486;DHT22;37565;51.352;6.412;2022-11-15T15:30:19;18.90;99.90
51486;DHT22;37565;51.352;6.412;2022-11-15T15:32:47;18.90;99.90
51486;DHT22;37565;51.352;6.412;2022-11-15T15:35:16;18.90;99.90
51486;DHT22;37565;51.352;6.412;2022-11-15T15:37:46;18.90;99.90
51486;DHT22;37565;51.352;6.412;2022-11-15T15:40:16;18.80;99.90
51486;DHT22;37565;51.352;6.412;2022-11-15T15:42:44;18.80;99.90
51486;DHT22;37565;51.352;6.412;2022-11-15T15:45:14;18.80;99.90
51486;DHT22;37565;51.352;6.412;2022-11-15T15:47:42;18.80;99.90
51486;DHT22;37565;51.352;6.412;2022-11-15T15:50:19;18.80;99.90
51486;DHT22;37565;51.352;6.412;2022-11-15T15:52:48;18.80;99.90
51486;DHT22;37565;51.352;6.412;2022-11-15T15:55:16;18.80;99.90
51486;DHT22;37565;51.352;6.412;2022-11-15T15:57:44;18.80;99.90
51486;DHT22;37565;51.352;6.412;2022-11-15T16:00:15;18.80;99.90
51486;DHT22;37565;51.352;6.412;2022-11-15T16:02:43;18.80;99.90
51486;DHT22;37565;51.352;6.412;2022-11-15T16:05:11;18.80;99.90
51486;DHT22;37565;51.352;6.412;2022-11-15T16:07:40;18.80;99.90
51486;DHT22;37565;51.352;6.412;2022-11-15T16:10:18;18.80;99.90
51486;DHT22;37565;51.352;6.412;2022-11-15T16:12:46;18.80;99.90